Time;durP1;ratioP1;P1;durP2;ratioP2;P2;SDS_P1;SDS_P2;PMS_P1;PMS_P2;Temp;Humidity;BMP_temperature;BMP_pressure;BME280_temperature;BME280_humidity;BME280_pressure;Samples;Min_cycle;Max_cycle;Signal;HPM_P1;HPM_P2
2023/03/16 00:00:52;;;;;;;;;;;3.50;99.90;;;;;;5013705;28;209342;-72
2023/03/16 00:03:18;;;;;;;;;;;3.40;99.90;;;;;;5059083;28;20313;-72
2023/03/16 00:05:48;;;;;;;;;;;3.50;99.90;;;;;;4979496;28;209289;-71
2023/03/16 00:08:14;;;;;;;;;;;3.50;99.90;;;;;;5070285;28;19944;-72
2023/03/16 00:10:45;;;;;;;;;;;3.50;99.90;;;;;;4972634;28;209561;-72
2023/03/16 00:13:18;;;;;;;;;;;3.50;99.90;;;;;;5081098;28;21336;-72
2023/03/16 00:15:55;;;;;;;;;;;3.50;99.90;;;;;;5032050;27;229574;-70
2023/03/16 00:18:25;;;;;;;;;;;3.50;99.90;;;;;;5074140;28;19920;-71
2023/03/16 00:21:00;;;;;;;;;;;3.50;99.90;;;;;;4996590;28;211474;-71
2023/03/16 00:23:27;;;;;;;;;;;3.50;99.90;;;;;;5092092;28;19990;-72
2023/03/16 00:25:57;;;;;;;;;;;3.60;99.90;;;;;;4973341;28;205982;-72
2023/03/16 00:28:24;;;;;;;;;;;3.60;99.90;;;;;;5060313;28;19920;-72
2023/03/16 00:30:49;;;;;;;;;;;3.60;99.90;;;;;;5021139;28;213517;-72
2023/03/16 00:33:15;;;;;;;;;;;3.60;99.90;;;;;;5061369;28;20279;-73
2023/03/16 00:35:48;;;;;;;;;;;3.60;99.90;;;;;;5026807;28;209839;-73
2023/03/16 00:38:16;;;;;;;;;;;3.70;99.90;;;;;;5075293;28;19935;-72
2023/03/16 00:40:42;;;;;;;;;;;3.70;99.90;;;;;;5001145;28;206413;-73
2023/03/16 00:43:08;;;;;;;;;;;3.70;99.90;;;;;;5061420;28;19920;-73
2023/03/16 00:45:35;;;;;;;;;;;3.70;99.90;;;;;;5008534;28;218734;-73
2023/03/16 00:48:01;;;;;;;;;;;3.80;99.90;;;;;;5076443;28;20400;-72
2023/03/16 00:50:27;;;;;;;;;;;3.80;99.90;;;;;;4985719;28;208781;-73
2023/03/16 00:52:53;;;;;;;;;;;3.80;99.90;;;;;;5058575;28;19920;-72
2023/03/16 00:55:19;;;;;;;;;;;3.80;99.90;;;;;;5018648;28;207187;-73
2023/03/16 00:57:45;;;;;;;;;;;3.80;99.90;;;;;;5071970;28;19921;-72
2023/03/16 01:00:14;;;;;;;;;;;3.80;99.90;;;;;;5002582;28;164185;-72
2023/03/16 01:02:41;;;;;;;;;;;3.80;99.90;;;;;;5061558;28;19928;-72
2023/03/16 01:05:08;;;;;;;;;;;3.80;99.90;;;;;;4995307;28;236670;-72
2023/03/16 01:07:35;;;;;;;;;;;3.80;99.90;;;;;;5059924;28;19936;-72
2023/03/16 01:10:02;;;;;;;;;;;3.80;99.90;;;;;;5006023;28;208533;-72
2023/03/16 01:12:28;;;;;;;;;;;3.80;99.90;;;;;;5052736;28;19924;-72
2023/03/16 01:14:54;;;;;;;;;;;3.80;99.90;;;;;;4990885;28;209886;-72
2023/03/16 01:17:21;;;;;;;;;;;3.70;99.90;;;;;;5062980;28;19931;-73
2023/03/16 01:19:47;;;;;;;;;;;3.70;99.90;;;;;;5005759;28;208433;-72
2023/03/16 01:22:14;;;;;;;;;;;3.70;99.90;;;;;;5061508;28;19939;-73
2023/03/16 01:24:40;;;;;;;;;;;3.70;99.90;;;;;;5015407;28;231044;-73
2023/03/16 01:27:06;;;;;;;;;;;3.60;99.90;;;;;;5073174;28;19924;-72
2023/03/16 01:29:32;;;;;;;;;;;3.60;99.90;;;;;;5004889;28;215982;-72
2023/03/16 01:31:59;;;;;;;;;;;3.60;99.90;;;;;;5062017;28;19921;-73
2023/03/16 01:34:25;;;;;;;;;;;3.50;99.90;;;;;;5009437;28;207852;-73
2023/03/16 01:36:51;;;;;;;;;;;3.50;99.90;;;;;;5051162;28;20408;-73
2023/03/16 01:39:17;;;;;;;;;;;3.40;99.90;;;;;;5007567;28;218702;-73
2023/03/16 01:41:44;;;;;;;;;;;3.40;99.90;;;;;;5079413;28;20316;-72
2023/03/16 01:44:23;;;;;;;;;;;3.40;99.90;;;;;;5013731;28;208075;-73
2023/03/16 01:46:49;;;;;;;;;;;3.40;99.90;;;;;;5032839;28;20511;-73
2023/03/16 01:49:19;;;;;;;;;;;3.30;99.90;;;;;;5024709;28;43650;-72
2023/03/16 01:51:52;;;;;;;;;;;3.30;99.90;;;;;;5067865;28;19921;-72
2023/03/16 01:54:18;;;;;;;;;;;3.30;99.90;;;;;;5022485;28;209257;-72
2023/03/16 01:56:57;;;;;;;;;;;3.30;99.90;;;;;;5053944;28;19925;-72
2023/03/16 01:59:26;;;;;;;;;;;3.30;99.90;;;;;;4998110;28;207789;-72
2023/03/16 02:01:52;;;;;;;;;;;3.20;99.90;;;;;;5051748;28;19928;-72
2023/03/16 02:04:30;;;;;;;;;;;3.20;99.90;;;;;;4996267;28;232297;-73
2023/03/16 02:06:56;;;;;;;;;;;3.20;99.90;;;;;;5071650;28;20385;-72
2023/03/16 02:09:23;;;;;;;;;;;3.20;99.90;;;;;;5033124;28;209383;-72
2023/03/16 02:11:49;;;;;;;;;;;3.20;99.90;;;;;;5092154;28;19927;-73
2023/03/16 02:14:15;;;;;;;;;;;3.20;99.90;;;;;;5032965;28;205639;-73
2023/03/16 02:16:41;;;;;;;;;;;3.20;99.90;;;;;;5084907;28;19920;-71
2023/03/16 02:19:10;;;;;;;;;;;3.20;99.90;;;;;;4993482;28;208904;-71
2023/03/16 02:21:45;;;;;;;;;;;3.30;99.90;;;;;;5049924;28;19932;-73
2023/03/16 02:24:11;;;;;;;;;;;3.30;99.90;;;;;;5000371;28;206954;-72
2023/03/16 02:27:04;;;;;;;;;;;3.30;99.90;;;;;;5068764;28;20403;-72
2023/03/16 02:29:48;;;;;;;;;;;3.30;99.90;;;;;;5008268;28;208585;-72
2023/03/16 02:32:14;;;;;;;;;;;3.30;99.90;;;;;;5054809;28;19924;-72
2023/03/16 02:34:41;;;;;;;;;;;3.40;99.90;;;;;;5014784;28;208404;-73
2023/03/16 02:37:07;;;;;;;;;;;3.40;99.90;;;;;;5065137;28;19928;-73
2023/03/16 02:39:33;;;;;;;;;;;3.50;99.90;;;;;;5037821;27;124773;-72
2023/03/16 02:41:59;;;;;;;;;;;3.50;99.90;;;;;;5060515;28;19939;-72
2023/03/16 02:44:27;;;;;;;;;;;3.50;99.90;;;;;;5018013;28;209872;-73
2023/03/16 02:46:55;;;;;;;;;;;3.50;99.90;;;;;;5058822;28;19927;-73
2023/03/16 02:49:26;;;;;;;;;;;3.50;99.90;;;;;;5005642;28;212858;-72
2023/03/16 02:51:52;;;;;;;;;;;3.60;99.90;;;;;;5070715;28;19924;-73
2023/03/16 02:54:18;;;;;;;;;;;3.60;99.90;;;;;;5031910;27;208948;-73
2023/03/16 02:56:44;;;;;;;;;;;3.60;99.90;;;;;;5058491;28;19924;-73
2023/03/16 02:59:11;;;;;;;;;;;3.60;99.90;;;;;;5037733;27;206145;-73
2023/03/16 03:01:36;;;;;;;;;;;3.70;99.90;;;;;;5070080;28;19925;-73
2023/03/16 03:04:03;;;;;;;;;;;3.70;99.90;;;;;;5034002;28;188068;-72
2023/03/16 03:06:29;;;;;;;;;;;3.70;99.90;;;;;;5061905;28;19954;-73
2023/03/16 03:08:55;;;;;;;;;;;3.70;99.90;;;;;;5004395;28;215437;-74
2023/03/16 03:11:21;;;;;;;;;;;3.80;99.90;;;;;;5080076;28;19924;-73
2023/03/16 03:13:47;;;;;;;;;;;3.80;99.90;;;;;;5021949;28;208900;-73
2023/03/16 03:16:13;;;;;;;;;;;3.80;99.90;;;;;;5062906;28;19986;-74
2023/03/16 03:18:39;;;;;;;;;;;3.80;99.90;;;;;;5025757;28;216227;-73
2023/03/16 03:21:06;;;;;;;;;;;3.80;99.90;;;;;;5066146;28;19931;-73
2023/03/16 03:23:34;;;;;;;;;;;3.80;99.90;;;;;;5069269;28;208222;-73
2023/03/16 03:26:01;;;;;;;;;;;3.80;99.90;;;;;;5029376;28;108896;-73
2023/03/16 03:28:28;;;;;;;;;;;3.80;99.90;;;;;;5078878;28;19927;-74
2023/03/16 03:30:54;;;;;;;;;;;3.80;99.90;;;;;;5006650;28;187436;-72
2023/03/16 03:33:21;;;;;;;;;;;3.80;99.90;;;;;;5058717;28;20617;-74
2023/03/16 03:35:52;;;;;;;;;;;3.80;99.90;;;;;;5014972;28;209269;-73
2023/03/16 03:38:18;;;;;;;;;;;3.80;99.90;;;;;;5081637;28;20381;-74
2023/03/16 03:40:44;;;;;;;;;;;3.80;99.90;;;;;;5035475;28;212548;-73
2023/03/16 03:43:10;;;;;;;;;;;3.90;99.90;;;;;;5041385;28;19955;-73
2023/03/16 03:45:35;;;;;;;;;;;3.80;99.90;;;;;;4978665;28;239654;-74
2023/03/16 03:48:01;;;;;;;;;;;3.90;99.90;;;;;;5065903;28;20066;-74
2023/03/16 03:50:27;;;;;;;;;;;3.90;99.90;;;;;;4989477;28;207116;-74
2023/03/16 03:52:53;;;;;;;;;;;3.90;99.90;;;;;;5043988;28;20050;-74
2023/03/16 03:55:20;;;;;;;;;;;3.90;99.90;;;;;;4997107;28;113633;-74
2023/03/16 03:57:46;;;;;;;;;;;3.90;99.90;;;;;;5047075;28;19920;-73
2023/03/16 04:00:12;;;;;;;;;;;3.90;99.90;;;;;;4962748;28;255618;-75
2023/03/16 04:02:38;;;;;;;;;;;3.90;99.90;;;;;;5060077;28;19929;-74
2023/03/16 04:05:04;;;;;;;;;;;4.00;99.90;;;;;;4989678;28;207111;-75
2023/03/16 04:07:30;;;;;;;;;;;4.00;99.90;;;;;;5047681;28;20220;-75
2023/03/16 04:09:56;;;;;;;;;;;3.90;99.90;;;;;;4991530;28;116489;-75
2023/03/16 04:12:22;;;;;;;;;;;4.00;99.90;;;;;;5063733;28;19924;-75
2023/03/16 04:14:48;;;;;;;;;;;4.00;99.90;;;;;;5016247;28;214316;-74
2023/03/16 04:17:14;;;;;;;;;;;4.00;99.90;;;;;;5059745;28;20027;-74
2023/03/16 04:19:40;;;;;;;;;;;4.00;99.90;;;;;;5008119;28;208429;-75
2023/03/16 04:22:06;;;;;;;;;;;4.00;99.90;;;;;;5062178;28;20356;-74
2023/03/16 04:24:33;;;;;;;;;;;4.00;99.90;;;;;;5000442;28;206674;-74
2023/03/16 04:26:59;;;;;;;;;;;4.10;99.90;;;;;;5046245;28;19920;-75
2023/03/16 04:29:25;;;;;;;;;;;4.10;99.90;;;;;;4999065;28;218647;-75
2023/03/16 04:31:52;;;;;;;;;;;4.10;99.90;;;;;;5058750;28;19924;-74
2023/03/16 04:34:19;;;;;;;;;;;4.10;99.90;;;;;;5001424;28;209167;-74
2023/03/16 04:36:44;;;;;;;;;;;4.10;99.90;;;;;;5048045;28;19924;-74
2023/03/16 04:39:10;;;;;;;;;;;4.10;99.90;;;;;;5005880;28;209152;-73
2023/03/16 04:41:36;;;;;;;;;;;4.10;99.90;;;;;;5056923;28;20408;-74
2023/03/16 04:44:03;;;;;;;;;;;4.10;99.90;;;;;;5004144;28;208721;-73
2023/03/16 04:46:29;;;;;;;;;;;4.10;99.90;;;;;;5058216;28;20285;-73
2023/03/16 04:48:57;;;;;;;;;;;4.20;99.90;;;;;;5010964;28;208871;-72
2023/03/16 04:51:24;;;;;;;;;;;4.20;99.90;;;;;;5057728;28;19924;-75
2023/03/16 04:53:50;;;;;;;;;;;4.10;99.90;;;;;;4998600;28;209577;-73
2023/03/16 04:56:19;;;;;;;;;;;4.20;99.90;;;;;;5057971;28;19924;-74
2023/03/16 04:58:46;;;;;;;;;;;4.20;99.90;;;;;;5005599;28;212239;-72
2023/03/16 05:01:12;;;;;;;;;;;4.20;99.90;;;;;;5058993;28;19928;-72
2023/03/16 05:03:38;;;;;;;;;;;4.20;99.90;;;;;;5014131;28;208974;-73
2023/03/16 05:06:04;;;;;;;;;;;4.20;99.90;;;;;;5003506;28;128999;-73
2023/03/16 05:08:30;;;;;;;;;;;4.20;99.90;;;;;;5057138;28;19925;-73
2023/03/16 05:10:57;;;;;;;;;;;4.10;99.90;;;;;;4985208;28;214891;-73
2023/03/16 05:13:22;;;;;;;;;;;4.20;99.90;;;;;;5064574;28;19924;-73
2023/03/16 05:15:48;;;;;;;;;;;4.20;99.90;;;;;;4990869;28;209329;-73
2023/03/16 05:18:14;;;;;;;;;;;4.20;99.90;;;;;;5064296;28;19946;-74
2023/03/16 05:20:41;;;;;;;;;;;4.20;99.90;;;;;;5015329;28;208549;-73
2023/03/16 05:23:07;;;;;;;;;;;4.20;99.90;;;;;;5057000;28;20328;-73
2023/03/16 05:25:33;;;;;;;;;;;4.20;99.90;;;;;;5017580;28;207053;-73
2023/03/16 05:27:59;;;;;;;;;;;4.20;99.90;;;;;;5081148;28;19931;-73
2023/03/16 05:30:25;;;;;;;;;;;4.20;99.90;;;;;;4997341;28;202608;-73
2023/03/16 05:32:51;;;;;;;;;;;4.20;99.90;;;;;;5076416;28;20289;-73
2023/03/16 05:35:17;;;;;;;;;;;4.20;99.90;;;;;;5028395;28;210233;-73
2023/03/16 05:37:43;;;;;;;;;;;4.20;99.90;;;;;;5065744;28;20401;-74
2023/03/16 05:40:16;;;;;;;;;;;4.20;99.90;;;;;;5028834;27;212883;-73
2023/03/16 05:42:45;;;;;;;;;;;4.20;99.90;;;;;;5069564;28;19924;-75
2023/03/16 05:45:13;;;;;;;;;;;4.20;99.90;;;;;;5028250;27;209569;-73
2023/03/16 05:47:39;;;;;;;;;;;4.20;99.90;;;;;;5082026;28;19928;-73
2023/03/16 05:50:07;;;;;;;;;;;4.20;99.90;;;;;;5017465;28;208940;-73
2023/03/16 05:52:34;;;;;;;;;;;4.20;99.90;;;;;;5095742;27;19924;-73
2023/03/16 05:55:00;;;;;;;;;;;4.20;99.90;;;;;;5007960;28;212375;-73
2023/03/16 05:57:25;;;;;;;;;;;4.20;99.90;;;;;;5056483;28;20490;-73
2023/03/16 05:59:52;;;;;;;;;;;4.30;99.90;;;;;;5008944;28;209328;-73
2023/03/16 06:02:18;;;;;;;;;;;4.30;99.90;;;;;;5056527;28;19932;-73
2023/03/16 06:04:43;;;;;;;;;;;4.30;99.90;;;;;;4978711;28;215884;-73
2023/03/16 06:07:09;;;;;;;;;;;4.30;99.90;;;;;;5057436;28;19924;-74
2023/03/16 06:09:35;;;;;;;;;;;4.30;99.90;;;;;;5011089;28;96324;-73
2023/03/16 06:12:02;;;;;;;;;;;4.30;99.90;;;;;;5052395;28;19929;-74
2023/03/16 06:14:29;;;;;;;;;;;4.20;99.90;;;;;;4998444;28;203096;-74
2023/03/16 06:16:55;;;;;;;;;;;4.30;99.90;;;;;;5024168;28;20311;-74
2023/03/16 06:19:21;;;;;;;;;;;4.20;99.90;;;;;;5004220;28;199607;-73
2023/03/16 06:21:47;;;;;;;;;;;4.20;99.90;;;;;;5047601;28;19925;-72
2023/03/16 06:24:13;;;;;;;;;;;4.20;99.90;;;;;;5002336;28;208877;-74
2023/03/16 06:26:39;;;;;;;;;;;4.30;99.90;;;;;;5062248;28;20356;-74
2023/03/16 06:29:05;;;;;;;;;;;4.30;99.90;;;;;;5009160;28;209047;-74
2023/03/16 06:31:32;;;;;;;;;;;4.30;99.90;;;;;;5072178;28;20471;-75
2023/03/16 06:33:59;;;;;;;;;;;4.30;99.90;;;;;;5008824;28;208201;-75
2023/03/16 06:36:25;;;;;;;;;;;4.30;99.90;;;;;;5045784;28;19928;-75
2023/03/16 06:38:50;;;;;;;;;;;4.30;99.90;;;;;;5046135;28;211806;-75
2023/03/16 06:41:16;;;;;;;;;;;4.40;99.90;;;;;;5073338;28;19924;-73
2023/03/16 06:43:42;;;;;;;;;;;4.40;99.90;;;;;;5024870;28;209907;-74
2023/03/16 06:46:08;;;;;;;;;;;4.40;99.90;;;;;;5053827;28;19928;-75
2023/03/16 06:48:34;;;;;;;;;;;4.40;99.90;;;;;;5039199;28;208368;-74
2023/03/16 06:51:00;;;;;;;;;;;4.40;99.90;;;;;;5007354;28;207130;-74
2023/03/16 06:53:26;;;;;;;;;;;4.50;99.90;;;;;;5058107;28;20328;-74
2023/03/16 06:55:52;;;;;;;;;;;4.50;99.90;;;;;;5013377;28;208528;-74
2023/03/16 06:58:18;;;;;;;;;;;4.50;99.90;;;;;;5061358;28;20015;-74
2023/03/16 07:00:44;;;;;;;;;;;4.60;99.90;;;;;;5012640;28;205964;-74
2023/03/16 07:03:10;;;;;;;;;;;4.60;99.90;;;;;;5059373;28;19928;-75
2023/03/16 07:05:36;;;;;;;;;;;4.60;99.90;;;;;;4968366;28;213233;-75
2023/03/16 07:08:03;;;;;;;;;;;4.70;99.90;;;;;;5080865;28;19932;-71
2023/03/16 07:10:29;;;;;;;;;;;4.70;99.90;;;;;;4999123;28;176679;-74
2023/03/16 07:12:55;;;;;;;;;;;4.70;99.90;;;;;;5062064;28;19920;-74
2023/03/16 07:15:24;;;;;;;;;;;4.70;99.90;;;;;;5000574;28;212011;-74
2023/03/16 07:17:51;;;;;;;;;;;4.80;99.90;;;;;;5061406;28;20281;-74
2023/03/16 07:20:17;;;;;;;;;;;4.80;99.90;;;;;;5023607;28;211776;-74
2023/03/16 07:22:43;;;;;;;;;;;4.80;99.90;;;;;;5062220;28;19935;-74
2023/03/16 07:25:10;;;;;;;;;;;4.80;99.90;;;;;;4984232;28;205915;-74
2023/03/16 07:27:37;;;;;;;;;;;4.80;99.90;;;;;;5057107;28;20308;-74
2023/03/16 07:30:04;;;;;;;;;;;4.80;99.90;;;;;;5007108;28;216911;-73
2023/03/16 07:32:31;;;;;;;;;;;4.90;99.90;;;;;;5078675;28;19929;-72
2023/03/16 07:34:57;;;;;;;;;;;4.90;99.90;;;;;;5018676;28;209074;-72
2023/03/16 07:37:24;;;;;;;;;;;4.90;99.90;;;;;;5059772;28;20433;-73
2023/03/16 07:39:50;;;;;;;;;;;5.00;99.90;;;;;;5018163;28;209553;-73
2023/03/16 07:42:16;;;;;;;;;;;5.00;99.90;;;;;;5059507;28;19935;-74
2023/03/16 07:44:42;;;;;;;;;;;5.10;99.90;;;;;;5014453;28;210055;-73
2023/03/16 07:47:11;;;;;;;;;;;5.20;99.90;;;;;;5071162;28;19924;-74
2023/03/16 07:49:37;;;;;;;;;;;5.20;99.90;;;;;;5003276;28;210079;-73
2023/03/16 07:52:03;;;;;;;;;;;5.30;99.90;;;;;;5072141;28;20024;-75
2023/03/16 07:54:29;;;;;;;;;;;5.20;99.90;;;;;;5022547;28;211284;-73
2023/03/16 07:56:54;;;;;;;;;;;5.30;99.90;;;;;;5078422;28;19925;-73
2023/03/16 07:59:20;;;;;;;;;;;5.40;99.90;;;;;;5016899;28;211838;-74
2023/03/16 08:01:47;;;;;;;;;;;5.30;99.90;;;;;;5072542;28;19928;-73
2023/03/16 08:04:13;;;;;;;;;;;5.30;99.90;;;;;;5006900;28;182498;-73
2023/03/16 08:06:39;;;;;;;;;;;5.40;99.90;;;;;;5060411;28;19932;-74
2023/03/16 08:09:05;;;;;;;;;;;5.40;99.90;;;;;;4998741;28;209261;-74
2023/03/16 08:11:31;;;;;;;;;;;5.40;99.90;;;;;;5027626;28;19924;-73
2023/03/16 08:13:57;;;;;;;;;;;5.40;99.90;;;;;;5020192;28;206878;-74
2023/03/16 08:16:23;;;;;;;;;;;5.40;99.90;;;;;;5058656;28;20249;-73
2023/03/16 08:18:50;;;;;;;;;;;5.40;99.90;;;;;;5010084;28;208952;-73
2023/03/16 08:21:17;;;;;;;;;;;5.40;99.90;;;;;;5087612;28;21941;-73
2023/03/16 08:23:47;;;;;;;;;;;5.40;99.90;;;;;;5043965;28;208877;-73
2023/03/16 08:26:17;;;;;;;;;;;5.40;99.90;;;;;;5071292;28;19925;-73
2023/03/16 08:28:47;;;;;;;;;;;5.40;99.90;;;;;;4996991;28;209781;-73
2023/03/16 08:31:13;;;;;;;;;;;5.40;99.90;;;;;;5078518;28;19932;-73
2023/03/16 08:33:40;;;;;;;;;;;5.40;99.90;;;;;;5018697;28;211475;-73
2023/03/16 08:36:07;;;;;;;;;;;5.40;99.90;;;;;;5052871;28;19921;-73
2023/03/16 08:38:33;;;;;;;;;;;5.40;99.90;;;;;;5051169;28;208015;-73
2023/03/16 08:41:00;;;;;;;;;;;5.40;99.90;;;;;;5039149;28;204471;-73
2023/03/16 08:43:26;;;;;;;;;;;5.40;99.90;;;;;;5081694;28;19928;-74
2023/03/16 08:45:52;;;;;;;;;;;5.50;99.90;;;;;;5046015;28;206617;-74
2023/03/16 08:48:19;;;;;;;;;;;5.40;99.90;;;;;;5064688;28;19924;-73
2023/03/16 08:50:45;;;;;;;;;;;5.40;99.90;;;;;;4974181;28;203139;-74
2023/03/16 08:53:12;;;;;;;;;;;5.40;99.90;;;;;;5061873;28;19928;-75
2023/03/16 08:55:40;;;;;;;;;;;5.40;99.90;;;;;;4999382;28;208545;-75
2023/03/16 08:58:06;;;;;;;;;;;5.40;99.90;;;;;;5078327;28;19924;-74
2023/03/16 09:00:32;;;;;;;;;;;5.40;99.90;;;;;;4994679;28;212282;-75
2023/03/16 09:02:59;;;;;;;;;;;5.40;99.90;;;;;;5043879;28;20405;-75
2023/03/16 09:05:25;;;;;;;;;;;5.40;99.90;;;;;;4996387;28;207263;-75
2023/03/16 09:07:52;;;;;;;;;;;5.40;99.90;;;;;;5056254;28;19928;-74
2023/03/16 09:10:21;;;;;;;;;;;5.40;99.90;;;;;;4991132;28;208573;-75
2023/03/16 09:12:48;;;;;;;;;;;5.40;99.90;;;;;;5055070;28;19955;-75
2023/03/16 09:15:14;;;;;;;;;;;5.40;99.90;;;;;;5011056;28;211954;-75
2023/03/16 09:17:41;;;;;;;;;;;5.40;99.90;;;;;;5082377;28;20015;-75
2023/03/16 09:20:08;;;;;;;;;;;5.40;99.90;;;;;;5026584;28;208517;-75
2023/03/16 09:22:35;;;;;;;;;;;5.40;99.90;;;;;;5074639;28;20304;-75
2023/03/16 09:25:01;;;;;;;;;;;5.40;99.90;;;;;;4999288;28;206920;-75
2023/03/16 09:27:27;;;;;;;;;;;5.50;99.90;;;;;;5064756;28;19925;-75
2023/03/16 09:29:55;;;;;;;;;;;5.50;99.90;;;;;;5016278;28;209883;-76
2023/03/16 09:32:21;;;;;;;;;;;5.60;99.90;;;;;;5056966;28;19920;-75
2023/03/16 09:34:47;;;;;;;;;;;5.70;99.90;;;;;;4986482;28;207083;-76
2023/03/16 09:37:13;;;;;;;;;;;5.70;99.90;;;;;;5033283;28;20373;-75
2023/03/16 09:39:39;;;;;;;;;;;5.80;99.90;;;;;;4998498;28;180385;-75
2023/03/16 09:42:26;;;;;;;;;;;6.00;99.90;;;;;;5038231;28;19921;-74
2023/03/16 09:45:07;;;;;;;;;;;5.90;99.90;;;;;;5013013;28;205093;-74
2023/03/16 09:47:34;;;;;;;;;;;6.00;99.90;;;;;;5067313;28;19927;-74
2023/03/16 09:50:05;;;;;;;;;;;6.00;99.90;;;;;;5024974;28;158521;-73
2023/03/16 09:52:47;;;;;;;;;;;6.10;99.90;;;;;;5056701;28;19928;-74
2023/03/16 09:55:26;;;;;;;;;;;6.10;99.90;;;;;;5019556;28;204077;-75
2023/03/16 09:57:52;;;;;;;;;;;6.20;99.90;;;;;;5075615;28;19932;-74
2023/03/16 10:00:19;;;;;;;;;;;6.20;99.90;;;;;;5014542;28;208193;-75
2023/03/16 10:02:51;;;;;;;;;;;6.20;99.90;;;;;;5078035;28;19928;-74
2023/03/16 10:05:19;;;;;;;;;;;6.20;99.90;;;;;;4988459;28;201740;-73
2023/03/16 10:08:07;;;;;;;;;;;6.10;99.90;;;;;;5079104;28;19947;-74
2023/03/16 10:10:43;;;;;;;;;;;6.00;99.90;;;;;;5032208;28;213400;-76
2023/03/16 10:13:18;;;;;;;;;;;6.10;99.90;;;;;;5068379;28;19924;-76
2023/03/16 10:15:45;;;;;;;;;;;6.00;99.90;;;;;;5033034;28;208766;-74
2023/03/16 10:18:17;;;;;;;;;;;6.00;99.90;;;;;;5079974;28;19924;-74
2023/03/16 10:20:44;;;;;;;;;;;6.10;99.90;;;;;;5040878;27;212806;-74
2023/03/16 10:23:19;;;;;;;;;;;6.10;99.90;;;;;;5086043;28;19924;-74
2023/03/16 10:25:55;;;;;;;;;;;6.20;99.90;;;;;;5000437;28;212450;-74
2023/03/16 10:28:25;;;;;;;;;;;6.30;99.90;;;;;;5064881;28;19920;-73
2023/03/16 10:30:53;;;;;;;;;;;6.30;99.90;;;;;;5029183;28;206809;-75
2023/03/16 10:33:26;;;;;;;;;;;6.40;99.90;;;;;;5063879;28;19927;-73
2023/03/16 10:36:11;;;;;;;;;;;6.30;99.90;;;;;;5010184;28;211786;-74
2023/03/16 10:38:39;;;;;;;;;;;6.40;99.90;;;;;;5024795;28;208291;-75
2023/03/16 10:41:25;;;;;;;;;;;6.50;99.90;;;;;;5074473;28;19929;-74
2023/03/16 10:44:12;;;;;;;;;;;6.50;99.90;;;;;;5021955;28;214593;-73
2023/03/16 10:46:43;;;;;;;;;;;6.50;99.90;;;;;;5067928;28;19920;-74
2023/03/16 10:49:24;;;;;;;;;;;6.50;99.90;;;;;;5005705;28;208131;-74
2023/03/16 10:51:51;;;;;;;;;;;6.60;99.90;;;;;;5046130;28;20505;-75
2023/03/16 10:54:27;;;;;;;;;;;6.60;99.90;;;;;;5028232;27;207133;-76
2023/03/16 10:56:53;;;;;;;;;;;6.60;99.90;;;;;;5050768;28;19935;-73
2023/03/16 10:59:20;;;;;;;;;;;6.70;99.90;;;;;;5011937;28;206977;-74
2023/03/16 11:01:51;;;;;;;;;;;6.70;99.90;;;;;;5064078;28;20682;-75
2023/03/16 11:04:17;;;;;;;;;;;6.80;99.90;;;;;;4995317;28;205579;-74
2023/03/16 11:06:48;;;;;;;;;;;6.80;99.90;;;;;;5078268;28;19936;-73
2023/03/16 11:09:19;;;;;;;;;;;6.80;99.90;;;;;;5014446;28;208502;-73
2023/03/16 11:11:47;;;;;;;;;;;6.90;99.90;;;;;;5070073;28;21462;-74
2023/03/16 11:14:16;;;;;;;;;;;6.90;99.90;;;;;;5034362;28;208272;-74
2023/03/16 11:16:45;;;;;;;;;;;7.00;99.90;;;;;;5058472;28;20421;-73
2023/03/16 11:19:13;;;;;;;;;;;7.00;99.90;;;;;;5027476;27;215743;-74
2023/03/16 11:21:48;;;;;;;;;;;7.00;99.90;;;;;;5071678;28;19932;-73
2023/03/16 11:24:17;;;;;;;;;;;7.10;99.90;;;;;;5004348;28;206688;-73
2023/03/16 11:26:44;;;;;;;;;;;7.10;99.90;;;;;;5028672;28;19935;-74
2023/03/16 11:29:16;;;;;;;;;;;7.20;99.90;;;;;;5010009;28;209639;-73
2023/03/16 11:31:52;;;;;;;;;;;7.20;99.90;;;;;;5065340;28;19924;-75
2023/03/16 11:34:20;;;;;;;;;;;7.30;99.90;;;;;;5022324;28;140664;-75
2023/03/16 11:36:54;;;;;;;;;;;7.40;99.90;;;;;;5057924;28;21562;-76
2023/03/16 11:39:20;;;;;;;;;;;7.50;99.90;;;;;;4985373;28;212180;-73
2023/03/16 11:42:08;;;;;;;;;;;7.60;99.90;;;;;;5057449;28;19929;-74
2023/03/16 11:44:54;;;;;;;;;;;7.70;99.90;;;;;;5019974;28;208937;-74
2023/03/16 11:47:27;;;;;;;;;;;7.90;99.90;;;;;;5045144;28;20282;-74
2023/03/16 11:49:53;;;;;;;;;;;7.80;99.90;;;;;;5005767;28;211845;-77
2023/03/16 11:52:29;;;;;;;;;;;7.90;99.90;;;;;;5074998;28;20551;-74
2023/03/16 11:55:14;;;;;;;;;;;7.90;99.90;;;;;;4999945;28;206993;-74
2023/03/16 11:57:48;;;;;;;;;;;7.90;99.90;;;;;;5049639;28;20305;-75
2023/03/16 12:00:30;;;;;;;;;;;8.00;99.90;;;;;;5010671;28;211804;-74
2023/03/16 12:03:16;;;;;;;;;;;8.30;99.90;;;;;;5079383;28;19943;-76
2023/03/16 12:05:52;;;;;;;;;;;8.40;99.90;;;;;;4989547;28;213320;-75
2023/03/16 12:08:17;;;;;;;;;;;8.70;99.90;;;;;;5081792;28;19931;-74
2023/03/16 12:10:51;;;;;;;;;;;8.90;99.90;;;;;;4991577;28;186126;-75
2023/03/16 12:13:20;;;;;;;;;;;8.90;99.90;;;;;;5060567;28;19928;-75
2023/03/16 12:15:52;;;;;;;;;;;9.00;99.90;;;;;;5002351;28;210048;-75
2023/03/16 12:18:33;;;;;;;;;;;9.10;99.90;;;;;;5060799;28;19927;-77
2023/03/16 12:21:04;;;;;;;;;;;9.20;99.90;;;;;;5018940;28;68590;-75
2023/03/16 12:23:39;;;;;;;;;;;9.20;99.90;;;;;;5088163;28;20335;-76
2023/03/16 12:26:05;;;;;;;;;;;9.30;99.90;;;;;;4984087;28;144403;-74
2023/03/16 12:28:32;;;;;;;;;;;9.40;99.90;;;;;;5055075;28;208909;-76
2023/03/16 12:31:04;;;;;;;;;;;9.50;99.90;;;;;;4984382;28;206091;-75
2023/03/16 12:33:34;;;;;;;;;;;9.60;99.90;;;;;;5062612;28;20015;-75
2023/03/16 12:36:19;;;;;;;;;;;9.70;99.90;;;;;;5016574;28;75915;-76
2023/03/16 12:38:55;;;;;;;;;;;9.90;99.90;;;;;;5005984;28;208083;-74
2023/03/16 12:41:27;;;;;;;;;;;10.00;99.90;;;;;;5086718;28;19920;-75
2023/03/16 12:43:56;;;;;;;;;;;10.10;99.90;;;;;;4988776;28;208963;-75
2023/03/16 12:46:30;;;;;;;;;;;10.00;99.90;;;;;;5046592;28;20440;-75
2023/03/16 12:48:57;;;;;;;;;;;9.80;99.90;;;;;;5003388;28;201492;-74
2023/03/16 12:51:37;;;;;;;;;;;9.80;99.90;;;;;;5045700;28;19928;-74
2023/03/16 12:54:04;;;;;;;;;;;9.90;99.90;;;;;;5011382;28;209098;-74
2023/03/16 12:56:43;;;;;;;;;;;9.70;99.90;;;;;;5076360;28;19921;-74
2023/03/16 12:59:14;;;;;;;;;;;9.60;99.90;;;;;;5009747;28;109698;-75
2023/03/16 13:01:42;;;;;;;;;;;9.50;99.90;;;;;;5044758;28;20417;-74
2023/03/16 13:04:22;;;;;;;;;;;9.40;99.90;;;;;;4983601;28;211490;-74
2023/03/16 13:07:00;;;;;;;;;;;9.40;99.90;;;;;;5048604;28;19935;-74
2023/03/16 13:09:27;;;;;;;;;;;9.30;99.90;;;;;;5017805;28;206789;-74
2023/03/16 13:11:54;;;;;;;;;;;9.30;99.90;;;;;;5092052;28;19962;-74
2023/03/16 13:14:32;;;;;;;;;;;9.30;99.90;;;;;;5042440;28;207284;-74
2023/03/16 13:17:20;;;;;;;;;;;9.30;99.90;;;;;;5084224;28;19928;-74
2023/03/16 13:20:08;;;;;;;;;;;9.40;99.90;;;;;;4999463;28;214442;-74
2023/03/16 13:22:43;;;;;;;;;;;9.50;99.90;;;;;;5053553;28;19929;-75
2023/03/16 13:25:14;;;;;;;;;;;9.50;99.90;;;;;;5002835;28;208422;-73
2023/03/16 13:27:42;;;;;;;;;;;9.60;99.90;;;;;;5065869;28;19920;-73
2023/03/16 13:30:27;;;;;;;;;;;9.70;99.90;;;;;;5003395;28;200694;-73
2023/03/16 13:32:54;;;;;;;;;;;9.80;99.90;;;;;;5055818;28;19924;-74
2023/03/16 13:35:23;;;;;;;;;;;10.00;99.90;;;;;;4997667;28;211091;-75
2023/03/16 13:37:49;;;;;;;;;;;10.40;99.90;;;;;;5058694;28;19924;-74
2023/03/16 13:40:20;;;;;;;;;;;10.60;99.90;;;;;;4997908;28;215671;-74
2023/03/16 13:42:49;;;;;;;;;;;10.80;99.90;;;;;;5061328;28;19928;-74
2023/03/16 13:45:18;;;;;;;;;;;11.00;99.90;;;;;;5002452;28;131787;-74
2023/03/16 13:47:47;;;;;;;;;;;11.10;99.90;;;;;;5084607;28;20507;-74
2023/03/16 13:50:13;;;;;;;;;;;11.00;99.90;;;;;;5033609;28;208151;-74
2023/03/16 13:52:42;;;;;;;;;;;11.00;99.90;;;;;;5079077;28;19920;-75
2023/03/16 13:55:16;;;;;;;;;;;11.40;99.90;;;;;;5013573;28;207399;-74
2023/03/16 13:57:42;;;;;;;;;;;11.40;99.90;;;;;;5081282;28;19925;-74
2023/03/16 14:00:09;;;;;;;;;;;11.50;99.90;;;;;;5031336;28;207357;-72
2023/03/16 14:02:39;;;;;;;;;;;11.60;99.90;;;;;;5059335;28;20016;-72
2023/03/16 14:05:10;;;;;;;;;;;11.30;99.90;;;;;;4992842;28;222974;-72
2023/03/16 14:07:37;;;;;;;;;;;11.10;99.90;;;;;;5089561;28;19927;-71
2023/03/16 14:10:04;;;;;;;;;;;11.10;99.90;;;;;;5018950;28;209657;-71
2023/03/16 14:12:30;;;;;;;;;;;11.10;99.90;;;;;;5066911;28;19939;-72
2023/03/16 14:14:56;;;;;;;;;;;11.00;99.90;;;;;;4995669;28;208085;-71
2023/03/16 14:17:22;;;;;;;;;;;11.00;99.90;;;;;;5061242;28;20413;-72
2023/03/16 14:19:55;;;;;;;;;;;10.90;99.90;;;;;;4996878;28;209178;-72
2023/03/16 14:22:22;;;;;;;;;;;10.80;99.90;;;;;;5063983;28;19920;-71
2023/03/16 14:24:53;;;;;;;;;;;10.70;99.90;;;;;;5022109;28;209503;-71
2023/03/16 14:27:24;;;;;;;;;;;10.70;99.90;;;;;;5055464;28;19921;-70
2023/03/16 14:29:57;;;;;;;;;;;10.50;99.90;;;;;;4990532;28;209316;-70
2023/03/16 14:32:28;;;;;;;;;;;10.40;99.90;;;;;;5049557;28;20404;-70